Temp: 12.7°C   Baro: 1022.3mb
  Wind: 2.0mph   Dir: NE (54°)
  Rain: 0.0mm (0.0mm/hr)
  Solar: 0W/m2  Hum: 82%

Historic data

Bath Spa Weather Station Historical Data
Daily Summary for September 19, 2019 Units:  Both    English   Metric
Daily Weekly Monthly Yearly Custom
  High: Low: Average:
Temperature: 58.6 °F /  14.8 °C 43.2 °F /  6.2 °C 51 °F /  10.6 °C
Dew Point: 49.5 °F /  9.7 °C 41 °F /  5 °C 46.1 °F /  7.8 °C
Humidity: 92% 66.4% 84%
Wind Speed: 9.2mph /  14.8km/h - 2.9mph /  4.7km/h
Wind Gust: 17mph /  27.4km/h - -
Wind- - WSW
Pressure: 29.70 in /  1005.6 hPa 29.45 in /  997.2 hPa -
Precipitation: 0.00 in /  0 mm    
Historical Graphs
 
 
Tabular Data for September 19, 2019
Time Temperature Dew Point Pressure Wind Wind Speed Wind Gust Humidity Rainfall Rate (Hourly) solar
00:04 51.3 °F /  10.7 °C 46.6 °F /  8.1 °C 29.46in /  997.5hPa West 2mph /  3.2km/h 5mph /  8km/h 84% 0.00in /  0mm 0 W/m2
00:09 51.4 °F /  10.8 °C 46.8 °F /  8.2 °C 29.46in /  997.5hPa SW 2.1mph /  3.4km/h 6mph /  9.7km/h 84% 0.00in /  0mm 0 W/m2
00:14 51.4 °F /  10.8 °C 46.7 °F /  8.2 °C 29.46in /  997.5hPa SW 1.1mph /  1.8km/h 4mph /  6.4km/h 84% 0.00in /  0mm 0 W/m2
00:19 51.3 °F /  10.7 °C 46.8 °F /  8.2 °C 29.46in /  997.5hPa SW 0.8mph /  1.3km/h 4mph /  6.4km/h 84.6% 0.00in /  0mm 0 W/m2
00:24 51.3 °F /  10.7 °C 46.9 °F /  8.3 °C 29.46in /  997.5hPa WSW 2.3mph /  3.7km/h 6mph /  9.7km/h 85% 0.00in /  0mm 0 W/m2
00:29 51.3 °F /  10.7 °C 46.9 °F /  8.3 °C 29.46in /  997.5hPa WSW 1.5mph /  2.4km/h 6mph /  9.7km/h 85% 0.00in /  0mm 0 W/m2
00:34 51.3 °F /  10.7 °C 46.9 °F /  8.3 °C 29.46in /  997.5hPa WSW 3.9mph /  6.3km/h 9mph /  14.5km/h 85% 0.00in /  0mm 0 W/m2
00:39 51.3 °F /  10.7 °C 46.9 °F /  8.3 °C 29.46in /  997.5hPa SW 1.6mph /  2.6km/h 5mph /  8km/h 85% 0.00in /  0mm 0 W/m2
00:44 51.3 °F /  10.7 °C 46.9 °F /  8.3 °C 29.46in /  997.5hPa SSW 1.7mph /  2.7km/h 5mph /  8km/h 85% 0.00in /  0mm 0 W/m2
00:49 51.3 °F /  10.7 °C 46.9 °F /  8.3 °C 29.46in /  997.5hPa WSW 4.4mph /  7.1km/h 9mph /  14.5km/h 85% 0.00in /  0mm 0 W/m2
00:54 51.3 °F /  10.7 °C 46.9 °F /  8.3 °C 29.46in /  997.5hPa WSW 5.3mph /  8.5km/h 9mph /  14.5km/h 85% 0.00in /  0mm 0 W/m2
00:59 51.3 °F /  10.7 °C 47 °F /  8.3 °C 29.46in /  997.5hPa SW 4.9mph /  7.9km/h 10mph /  16.1km/h 85% 0.00in /  0mm 0 W/m2
01:04 51.4 °F /  10.8 °C 47.1 °F /  8.4 °C 29.46in /  997.5hPa WSW 5mph /  8km/h 10mph /  16.1km/h 85% 0.00in /  0mm 0 W/m2
01:09 51.5 °F /  10.8 °C 47.2 °F /  8.4 °C 29.46in /  997.5hPa SW 4.3mph /  6.9km/h 9mph /  14.5km/h 85% 0.00in /  0mm 0 W/m2
01:14 51.5 °F /  10.8 °C 47.2 °F /  8.4 °C 29.46in /  997.5hPa SW 2.9mph /  4.7km/h 8mph /  12.9km/h 85% 0.00in /  0mm 0 W/m2
01:19 51.5 °F /  10.8 °C 47.2 °F /  8.4 °C 29.46in /  997.5hPa SW 3.8mph /  6.1km/h 7mph /  11.3km/h 85% 0.00in /  0mm 0 W/m2
01:24 51.5 °F /  10.8 °C 47.2 °F /  8.4 °C 29.46in /  997.5hPa SW 1.6mph /  2.6km/h 6mph /  9.7km/h 85% 0.00in /  0mm 0 W/m2
01:29 51.4 °F /  10.8 °C 47.1 °F /  8.4 °C 29.46in /  997.5hPa SW 2.9mph /  4.7km/h 8mph /  12.9km/h 85% 0.00in /  0mm 0 W/m2
01:34 51.5 °F /  10.8 °C 47.2 °F /  8.4 °C 29.46in /  997.5hPa WSW 3mph /  4.8km/h 8mph /  12.9km/h 85% 0.00in /  0mm 0 W/m2
01:39 51.6 °F /  10.9 °C 47.3 °F /  8.5 °C 29.46in /  997.5hPa WSW 2.8mph /  4.5km/h 9mph /  14.5km/h 85% 0.00in /  0mm 0 W/m2
01:44 51.6 °F /  10.9 °C 47.3 °F /  8.5 °C 29.46in /  997.5hPa WSW 2.3mph /  3.7km/h 9mph /  14.5km/h 85% 0.00in /  0mm 0 W/m2
01:49 51.4 °F /  10.8 °C 47.1 °F /  8.4 °C 29.46in /  997.5hPa WSW 4.1mph /  6.6km/h 9mph /  14.5km/h 85% 0.00in /  0mm 0 W/m2
01:54 51.4 °F /  10.8 °C 47.1 °F /  8.4 °C 29.46in /  997.5hPa SW 3.6mph /  5.8km/h 8mph /  12.9km/h 85% 0.00in /  0mm 0 W/m2
01:59 51.4 °F /  10.8 °C 47.1 °F /  8.4 °C 29.46in /  997.5hPa SW 3.2mph /  5.1km/h 8mph /  12.9km/h 85% 0.00in /  0mm 0 W/m2
02:04 51.3 °F /  10.7 °C 47 °F /  8.3 °C 29.46in /  997.5hPa SW 4.2mph /  6.8km/h 8mph /  12.9km/h 85% 0.00in /  0mm 0 W/m2
02:09 51.3 °F /  10.7 °C 46.9 °F /  8.3 °C 29.46in /  997.5hPa SW 2.4mph /  3.9km/h 8mph /  12.9km/h 85% 0.00in /  0mm 0 W/m2
02:14 51.3 °F /  10.7 °C 46.9 °F /  8.3 °C 29.46in /  997.5hPa SW 3.2mph /  5.1km/h 6mph /  9.7km/h 85% 0.00in /  0mm 0 W/m2
02:19 51.3 °F /  10.7 °C 46.9 °F /  8.3 °C 29.46in /  997.5hPa SW 3.9mph /  6.3km/h 7mph /  11.3km/h 85% 0.00in /  0mm 0 W/m2
02:24 51.3 °F /  10.7 °C 46.9 °F /  8.3 °C 29.46in /  997.5hPa SW 3.9mph /  6.3km/h 7mph /  11.3km/h 85% 0.00in /  0mm 0 W/m2
02:29 51.2 °F /  10.7 °C 46.9 °F /  8.3 °C 29.46in /  997.5hPa WSW 3.8mph /  6.1km/h 8mph /  12.9km/h 85.1% 0.00in /  0mm 0 W/m2
02:34 51.1 °F /  10.6 °C 47.1 °F /  8.4 °C 29.46in /  997.5hPa SW 4.2mph /  6.8km/h 8mph /  12.9km/h 86% 0.00in /  0mm 0 W/m2
02:39 51.1 °F /  10.6 °C 47.1 °F /  8.4 °C 29.45in /  997.2hPa SW 5.1mph /  8.2km/h 8mph /  12.9km/h 86% 0.00in /  0mm 0 W/m2
02:44 50.9 °F /  10.5 °C 46.9 °F /  8.3 °C 29.45in /  997.2hPa SW 3.5mph /  5.6km/h 7mph /  11.3km/h 86% 0.00in /  0mm 0 W/m2
02:49 50.9 °F /  10.5 °C 46.9 °F /  8.3 °C 29.45in /  997.2hPa WSW 4.5mph /  7.2km/h 9mph /  14.5km/h 86% 0.00in /  0mm 0 W/m2
02:54 50.7 °F /  10.4 °C 46.8 °F /  8.2 °C 29.45in /  997.2hPa SW 3mph /  4.8km/h 8mph /  12.9km/h 86% 0.00in /  0mm 0 W/m2
02:59 50.7 °F /  10.4 °C 46.8 °F /  8.2 °C 29.45in /  997.2hPa SW 5mph /  8km/h 9mph /  14.5km/h 86% 0.00in /  0mm 0 W/m2
03:04 50.6 °F /  10.3 °C 46.7 °F /  8.2 °C 29.46in /  997.5hPa WSW 4.1mph /  6.6km/h 8mph /  12.9km/h 86% 0.00in /  0mm 0 W/m2
03:09 50.6 °F /  10.3 °C 46.8 °F /  8.2 °C 29.46in /  997.5hPa SW 6.3mph /  10.1km/h 14mph /  22.5km/h 86.6% 0.00in /  0mm 0 W/m2
03:14 50.5 °F /  10.3 °C 46.8 °F /  8.2 °C 29.46in /  997.5hPa WSW 3.6mph /  5.8km/h 8mph /  12.9km/h 87% 0.00in /  0mm 0 W/m2
03:19 50.5 °F /  10.3 °C 46.7 °F /  8.2 °C 29.45in /  997.2hPa SW 3.4mph /  5.5km/h 8mph /  12.9km/h 87% 0.00in /  0mm 0 W/m2
03:24 50.4 °F /  10.2 °C 46.6 °F /  8.1 °C 29.46in /  997.5hPa WSW 4.5mph /  7.2km/h 8mph /  12.9km/h 87% 0.00in /  0mm 0 W/m2
03:29 50.4 °F /  10.2 °C 46.6 °F /  8.1 °C 29.46in /  997.5hPa SW 3.7mph /  6km/h 7mph /  11.3km/h 87% 0.00in /  0mm 0 W/m2
03:34 50.3 °F /  10.2 °C 46.5 °F /  8.1 °C 29.46in /  997.5hPa SW 3.1mph /  5km/h 7mph /  11.3km/h 87% 0.00in /  0mm 0 W/m2
03:39 50.2 °F /  10.1 °C 46.4 °F /  8 °C 29.45in /  997.2hPa SW 3.6mph /  5.8km/h 7mph /  11.3km/h 87% 0.00in /  0mm 0 W/m2
03:44 50.2 °F /  10.1 °C 46.4 °F /  8 °C 29.45in /  997.2hPa SW 3mph /  4.8km/h 6mph /  9.7km/h 87% 0.00in /  0mm 0 W/m2
03:49 50 °F /  10 °C 46.2 °F /  7.9 °C 29.45in /  997.2hPa SW 4.4mph /  7.1km/h 9mph /  14.5km/h 87% 0.00in /  0mm 0 W/m2
03:54 49.9 °F /  9.9 °C 46.1 °F /  7.8 °C 29.46in /  997.5hPa SW 3.3mph /  5.3km/h 9mph /  14.5km/h 87% 0.00in /  0mm 0 W/m2
03:59 49.8 °F /  9.9 °C 46.1 °F /  7.8 °C 29.46in /  997.5hPa WSW 3.1mph /  5km/h 7mph /  11.3km/h 87.2% 0.00in /  0mm 0 W/m2
04:04 49.8 °F /  9.9 °C 46.3 °F /  7.9 °C 29.46in /  997.5hPa WSW 2mph /  3.2km/h 7mph /  11.3km/h 87.7% 0.00in /  0mm 0 W/m2
04:09 49.7 °F /  9.8 °C 45.9 °F /  7.7 °C 29.45in /  997.2hPa WSW 2.4mph /  3.9km/h 5mph /  8km/h 87% 0.00in /  0mm 0 W/m2
04:14 49.6 °F /  9.8 °C 46.1 °F /  7.8 °C 29.46in /  997.5hPa WSW 1.9mph /  3.1km/h 4mph /  6.4km/h 88% 0.00in /  0mm 0 W/m2
04:19 49.5 °F /  9.7 °C 46 °F /  7.8 °C 29.46in /  997.5hPa WSW 0.6mph /  1km/h 4mph /  6.4km/h 88% 0.00in /  0mm 0 W/m2
04:24 49.5 °F /  9.7 °C 46 °F /  7.8 °C 29.46in /  997.5hPa WSW 1.7mph /  2.7km/h 5mph /  8km/h 88% 0.00in /  0mm 0 W/m2
04:29 49.3 °F /  9.6 °C 45.9 °F /  7.7 °C 29.46in /  997.5hPa WSW 0.5mph /  0.8km/h 5mph /  8km/h 88% 0.00in /  0mm 0 W/m2
04:34 49.1 °F /  9.5 °C 45.7 °F /  7.6 °C 29.46in /  997.5hPa WSW 0.5mph /  0.8km/h 2mph /  3.2km/h 88% 0.00in /  0mm 0 W/m2
04:39 49 °F /  9.4 °C 45.6 °F /  7.6 °C 29.46in /  997.5hPa Calm   1mph /  1.6km/h 88% 0.00in /  0mm 0 W/m2
04:44 48.9 °F /  9.4 °C 45.5 °F /  7.5 °C 29.46in /  997.5hPa Calm   1mph /  1.6km/h 88% 0.00in /  0mm 0 W/m2
04:49 48.6 °F /  9.2 °C 45.2 °F /  7.3 °C 29.46in /  997.5hPa WSW 0.2mph /  0.3km/h 1mph /  1.6km/h 88% 0.00in /  0mm 0 W/m2
04:54 48.5 °F /  9.2 °C 45.1 °F /  7.3 °C 29.46in /  997.5hPa WSW 0.9mph /  1.4km/h 4mph /  6.4km/h 88.1% 0.00in /  0mm 0 W/m2
04:59 48.5 °F /  9.2 °C 45.4 °F /  7.4 °C 29.46in /  997.5hPa WSW 1.6mph /  2.6km/h 4mph /  6.4km/h 89% 0.00in /  0mm 0 W/m2
05:04 48.5 °F /  9.2 °C 45.4 °F /  7.4 °C 29.46in /  997.5hPa WSW 1.7mph /  2.7km/h 3mph /  4.8km/h 89% 0.00in /  0mm 0 W/m2
05:09 48.4 °F /  9.1 °C 45.3 °F /  7.4 °C 29.46in /  997.5hPa WSW 2.1mph /  3.4km/h 4mph /  6.4km/h 89% 0.00in /  0mm 0 W/m2
05:14 48.6 °F /  9.2 °C 45.5 °F /  7.5 °C 29.46in /  997.5hPa WSW 2mph /  3.2km/h 5mph /  8km/h 89% 0.00in /  0mm 0 W/m2
05:19 48.7 °F /  9.3 °C 45.8 °F /  7.7 °C 29.46in /  997.5hPa West 2.7mph /  4.3km/h 7mph /  11.3km/h 90% 0.00in /  0mm 0 W/m2
05:24 48.7 °F /  9.3 °C 45.9 °F /  7.7 °C 29.46in /  997.5hPa WNW 2mph /  3.2km/h 7mph /  11.3km/h 90% 0.00in /  0mm 0 W/m2
05:29 48.6 °F /  9.2 °C 45.8 °F /  7.7 °C 29.46in /  997.5hPa West 2.5mph /  4km/h 9mph /  14.5km/h 90% 0.00in /  0mm 0 W/m2
05:34 48.6 °F /  9.2 °C 45.8 °F /  7.7 °C 29.46in /  997.5hPa WSW 2.2mph /  3.5km/h 9mph /  14.5km/h 90% 0.00in /  0mm 0 W/m2
05:39 48.6 °F /  9.2 °C 45.7 °F /  7.6 °C 29.46in /  997.5hPa WSW 2mph /  3.2km/h 7mph /  11.3km/h 90% 0.00in /  0mm 0 W/m2
05:44 48.6 °F /  9.2 °C 45.7 °F /  7.6 °C 29.46in /  997.5hPa WSW 3.1mph /  5km/h 7mph /  11.3km/h 90% 0.00in /  0mm 0 W/m2
05:49 48.7 °F /  9.3 °C 45.8 °F /  7.7 °C 29.46in /  997.5hPa WSW 3.7mph /  6km/h 8mph /  12.9km/h 90% 0.00in /  0mm 0 W/m2
05:54 48.8 °F /  9.3 °C 46 °F /  7.8 °C 29.46in /  997.5hPa WSW 2.6mph /  4.2km/h 7mph /  11.3km/h 90% 0.00in /  0mm 0 W/m2
05:59 48.9 °F /  9.4 °C 46 °F /  7.8 °C 29.46in /  997.5hPa WSW 2.4mph /  3.9km/h 7mph /  11.3km/h 90% 0.00in /  0mm 0 W/m2
06:04 48.9 °F /  9.4 °C 46 °F /  7.8 °C 29.46in /  997.5hPa WSW 4.4mph /  7.1km/h 10mph /  16.1km/h 90% 0.00in /  0mm 0 W/m2
06:09 48.9 °F /  9.4 °C 46 °F /  7.8 °C 29.46in /  997.5hPa WSW 2.1mph /  3.4km/h 7mph /  11.3km/h 90% 0.00in /  0mm 0 W/m2
06:14 48.8 °F /  9.3 °C 45.9 °F /  7.7 °C 29.46in /  997.5hPa WSW 2.9mph /  4.7km/h 8mph /  12.9km/h 90% 0.00in /  0mm 0 W/m2
06:19 48.6 °F /  9.2 °C 45.8 °F /  7.7 °C 29.46in /  997.5hPa West 1.8mph /  2.9km/h 5mph /  8km/h 90% 0.00in /  0mm 0 W/m2
06:24 48.5 °F /  9.2 °C 45.6 °F /  7.6 °C 29.46in /  997.5hPa West 2.3mph /  3.7km/h 6mph /  9.7km/h 90% 0.00in /  0mm 0 W/m2
06:29 48.4 °F /  9.1 °C 45.5 °F /  7.5 °C 29.46in /  997.5hPa West 1.6mph /  2.6km/h 5mph /  8km/h 90% 0.00in /  0mm 0 W/m2
06:34 48.2 °F /  9 °C 45.3 °F /  7.4 °C 29.46in /  997.5hPa West 0.6mph /  1km/h 5mph /  8km/h 90% 0.00in /  0mm 0 W/m2
06:39 47.9 °F /  8.8 °C 45.1 °F /  7.3 °C 29.47in /  997.9hPa West 2mph /  3.2km/h 6mph /  9.7km/h 90% 0.00in /  0mm 0 W/m2
06:44 47.7 °F /  8.7 °C 45 °F /  7.2 °C 29.47in /  997.9hPa WNW 0.8mph /  1.3km/h 3mph /  4.8km/h 90% 0.00in /  0mm 0 W/m2
06:49 47.7 °F /  8.7 °C 45 °F /  7.2 °C 29.47in /  997.9hPa WNW 0.6mph /  1km/h 3mph /  4.8km/h 90.1% 0.00in /  0mm 0 W/m2
06:54 47.7 °F /  8.7 °C 45.1 °F /  7.3 °C 29.47in /  997.9hPa West 1.2mph /  1.9km/h 5mph /  8km/h 91% 0.00in /  0mm 0 W/m2
06:59 47.5 °F /  8.6 °C 45 °F /  7.2 °C 29.47in /  997.9hPa WNW 1.1mph /  1.8km/h 4mph /  6.4km/h 91% 0.00in /  0mm 0 W/m2
07:04 47.6 °F /  8.7 °C 45 °F /  7.2 °C 29.47in /  997.9hPa WNW 1.1mph /  1.8km/h 4mph /  6.4km/h 91% 0.00in /  0mm 0 W/m2
07:09 47.5 °F /  8.6 °C 45 °F /  7.2 °C 29.47in /  997.9hPa WNW 1mph /  1.6km/h 4mph /  6.4km/h 91% 0.00in /  0mm 0 W/m2
07:14 47.5 °F /  8.6 °C 45 °F /  7.2 °C 29.47in /  997.9hPa Calm   4mph /  6.4km/h 91% 0.00in /  0mm 0 W/m2
07:19 47.6 °F /  8.7 °C 45.1 °F /  7.3 °C 29.48in /  998.2hPa WNW 1.2mph /  1.9km/h 3mph /  4.8km/h 91% 0.00in /  0mm 0 W/m2
07:24 47.7 °F /  8.7 °C 45.1 °F /  7.3 °C 29.48in /  998.2hPa WNW 1.4mph /  2.3km/h 4mph /  6.4km/h 91% 0.00in /  0mm 0 W/m2
07:29 47.7 °F /  8.7 °C 45.1 °F /  7.3 °C 29.48in /  998.2hPa WNW 0.8mph /  1.3km/h 4mph /  6.4km/h 91% 0.00in /  0mm 0 W/m2
07:34 47.7 °F /  8.7 °C 45.2 °F /  7.3 °C 29.48in /  998.2hPa West 2.1mph /  3.4km/h 5mph /  8km/h 91.3% 0.00in /  0mm 0 W/m2
07:39 47.8 °F /  8.8 °C 45.7 °F /  7.6 °C 29.48in /  998.2hPa West 0.3mph /  0.5km/h 4mph /  6.4km/h 92% 0.00in /  0mm 0 W/m2
07:44 47.7 °F /  8.7 °C 45.6 °F /  7.6 °C 29.48in /  998.2hPa West 0.4mph /  0.6km/h 3mph /  4.8km/h 92% 0.00in /  0mm 5 W/m2
07:49 47.7 °F /  8.7 °C 45.3 °F /  7.4 °C 29.48in /  998.2hPa West 1.7mph /  2.7km/h 6mph /  9.7km/h 91.5% 0.00in /  0mm 7 W/m2
07:54 47.6 °F /  8.7 °C 45.2 °F /  7.3 °C 29.49in /  998.5hPa Calm   2mph /  3.2km/h 91.5% 0.00in /  0mm 11 W/m2
07:59 47.5 °F /  8.6 °C 45.3 °F /  7.4 °C 29.49in /  998.5hPa WSW 0.4mph /  0.6km/h 2mph /  3.2km/h 92% 0.00in /  0mm 12 W/m2
08:04 47.5 °F /  8.6 °C 45.3 °F /  7.4 °C 29.49in /  998.5hPa WSW 1.2mph /  1.9km/h 4mph /  6.4km/h 92% 0.00in /  0mm 14 W/m2
08:09 47.5 °F /  8.6 °C 45.3 °F /  7.4 °C 29.49in /  998.5hPa Calm   1mph /  1.6km/h 92% 0.00in /  0mm 19 W/m2
08:14 47.5 °F /  8.6 °C 45.3 °F /  7.4 °C 29.49in /  998.5hPa WSW 0.5mph /  0.8km/h 2mph /  3.2km/h 92% 0.00in /  0mm 23 W/m2
08:19 47.5 °F /  8.6 °C 45.3 °F /  7.4 °C 29.49in /  998.5hPa WSW 0.9mph /  1.4km/h 3mph /  4.8km/h 92% 0.00in /  0mm 23 W/m2
08:24 47.6 °F /  8.7 °C 45.4 °F /  7.4 °C 29.49in /  998.5hPa West 1.1mph /  1.8km/h 3mph /  4.8km/h 92% 0.00in /  0mm 26 W/m2
08:29 47.8 °F /  8.8 °C 45.6 °F /  7.6 °C 29.50in /  998.9hPa West 0.7mph /  1.1km/h 3mph /  4.8km/h 92% 0.00in /  0mm 39 W/m2
08:34 47.9 °F /  8.8 °C 45.8 °F /  7.7 °C 29.50in /  998.9hPa West 0.1mph /  0.2km/h 3mph /  4.8km/h 92% 0.00in /  0mm 40 W/m2
08:39 48 °F /  8.9 °C 45.9 °F /  7.7 °C 29.50in /  998.9hPa West 0.3mph /  0.5km/h 3mph /  4.8km/h 92% 0.00in /  0mm 40 W/m2
08:44 48.1 °F /  8.9 °C 46 °F /  7.8 °C 29.50in /  998.9hPa West 0.5mph /  0.8km/h 3mph /  4.8km/h 92% 0.00in /  0mm 37 W/m2
08:49 48.5 °F /  9.2 °C 46.3 °F /  7.9 °C 29.50in /  998.9hPa West 0.2mph /  0.3km/h 2mph /  3.2km/h 92% 0.00in /  0mm 47 W/m2
08:54 48.6 °F /  9.2 °C 46.5 °F /  8.1 °C 29.50in /  998.9hPa West 1.9mph /  3.1km/h 5mph /  8km/h 92% 0.00in /  0mm 88 W/m2
08:59 48.8 °F /  9.3 °C 46.5 °F /  8.1 °C 29.50in /  998.9hPa West 1.9mph /  3.1km/h 6mph /  9.7km/h 91.6% 0.00in /  0mm 84 W/m2
09:04 49.1 °F /  9.5 °C 46.6 °F /  8.1 °C 29.51in /  999.2hPa West 1.3mph /  2.1km/h 6mph /  9.7km/h 91% 0.00in /  0mm 74 W/m2
09:09 49.3 °F /  9.6 °C 46.8 °F /  8.2 °C 29.51in /  999.2hPa West 1.6mph /  2.6km/h 6mph /  9.7km/h 91% 0.00in /  0mm 49 W/m2
09:14 49.2 °F /  9.6 °C 46.7 °F /  8.2 °C 29.51in /  999.2hPa West 1.6mph /  2.6km/h 5mph /  8km/h 91% 0.00in /  0mm 54 W/m2
09:19 49.3 °F /  9.6 °C 46.8 °F /  8.2 °C 29.51in /  999.2hPa West 1.5mph /  2.4km/h 4mph /  6.4km/h 91% 0.00in /  0mm 69 W/m2
09:24 49.4 °F /  9.7 °C 46.9 °F /  8.3 °C 29.51in /  999.2hPa West 0.8mph /  1.3km/h 3mph /  4.8km/h 91% 0.00in /  0mm 70 W/m2
09:29 49.5 °F /  9.7 °C 47 °F /  8.3 °C 29.51in /  999.2hPa West 2mph /  3.2km/h 5mph /  8km/h 91% 0.00in /  0mm 56 W/m2
09:34 49.6 °F /  9.8 °C 47.1 °F /  8.4 °C 29.51in /  999.2hPa West 0.5mph /  0.8km/h 3mph /  4.8km/h 91% 0.00in /  0mm 54 W/m2
09:39 49.8 °F /  9.9 °C 47.3 °F /  8.5 °C 29.51in /  999.2hPa West 1.5mph /  2.4km/h 5mph /  8km/h 91% 0.00in /  0mm 77 W/m2
09:44 50.1 °F /  10.1 °C 47.4 °F /  8.6 °C 29.51in /  999.2hPa West 3mph /  4.8km/h 8mph /  12.9km/h 90.7% 0.00in /  0mm 83 W/m2
09:49 50.2 °F /  10.1 °C 47.4 °F /  8.6 °C 29.51in /  999.2hPa WSW 5.5mph /  8.9km/h 12mph /  19.3km/h 90.3% 0.00in /  0mm 102 W/m2
09:54 50.2 °F /  10.1 °C 47.3 °F /  8.5 °C 29.51in /  999.2hPa WSW 4.4mph /  7.1km/h 12mph /  19.3km/h 90% 0.00in /  0mm 107 W/m2
09:59 50.4 °F /  10.2 °C 47.5 °F /  8.6 °C 29.51in /  999.2hPa WSW 4.6mph /  7.4km/h 9mph /  14.5km/h 89.9% 0.00in /  0mm 214 W/m2
10:04 50.6 °F /  10.3 °C 47.6 °F /  8.7 °C 29.52in /  999.5hPa WSW 3.5mph /  5.6km/h 8mph /  12.9km/h 89.4% 0.00in /  0mm 214 W/m2
10:09 50.7 °F /  10.4 °C 47.7 °F /  8.7 °C 29.52in /  999.5hPa WSW 3mph /  4.8km/h 8mph /  12.9km/h 89% 0.00in /  0mm 220 W/m2
10:14 50.8 °F /  10.4 °C 47.6 °F /  8.7 °C 29.52in /  999.5hPa WSW 5.2mph /  8.4km/h 8mph /  12.9km/h 88.6% 0.00in /  0mm 220 W/m2
10:19 50.6 °F /  10.3 °C 47.2 °F /  8.4 °C 29.52in /  999.5hPa WSW 4.6mph /  7.4km/h 9mph /  14.5km/h 88% 0.00in /  0mm 211 W/m2
10:24 50.7 °F /  10.4 °C 47.3 °F /  8.5 °C 29.52in /  999.5hPa WSW 2.8mph /  4.5km/h 7mph /  11.3km/h 88% 0.00in /  0mm 102 W/m2
10:29 50.7 °F /  10.4 °C 47.3 °F /  8.5 °C 29.52in /  999.5hPa WSW 3.8mph /  6.1km/h 8mph /  12.9km/h 88% 0.00in /  0mm 100 W/m2
10:34 50.7 °F /  10.4 °C 47.3 °F /  8.5 °C 29.52in /  999.5hPa West 3mph /  4.8km/h 8mph /  12.9km/h 88% 0.00in /  0mm 83 W/m2
10:39 50.7 °F /  10.4 °C 47.3 °F /  8.5 °C 29.52in /  999.5hPa WSW 4.2mph /  6.8km/h 8mph /  12.9km/h 88% 0.00in /  0mm 156 W/m2
10:44 50.9 °F /  10.5 °C 47.5 °F /  8.6 °C 29.52in /  999.5hPa WSW 4.8mph /  7.7km/h 10mph /  16.1km/h 88% 0.00in /  0mm 290 W/m2
10:49 51.1 °F /  10.6 °C 47.7 °F /  8.7 °C 29.52in /  999.5hPa SW 2.5mph /  4km/h 7mph /  11.3km/h 88% 0.00in /  0mm 304 W/m2
10:54 51.5 °F /  10.8 °C 48 °F /  8.9 °C 29.52in /  999.5hPa SW 3.5mph /  5.6km/h 7mph /  11.3km/h 87.7% 0.00in /  0mm 315 W/m2
10:59 52 °F /  11.1 °C 48.2 °F /  9 °C 29.52in /  999.5hPa SW 5.6mph /  9km/h 9mph /  14.5km/h 86.9% 0.00in /  0mm 327 W/m2
11:04 52.7 °F /  11.5 °C 48.5 °F /  9.2 °C 29.52in /  999.5hPa WSW 3.6mph /  5.8km/h 9mph /  14.5km/h 86% 0.00in /  0mm 338 W/m2
11:09 53.1 °F /  11.7 °C 48.7 °F /  9.3 °C 29.53in /  999.9hPa WSW 5.5mph /  8.9km/h 10mph /  16.1km/h 85% 0.00in /  0mm 350 W/m2
11:14 53 °F /  11.7 °C 48.3 °F /  9.1 °C 29.53in /  999.9hPa WSW 6.1mph /  9.8km/h 10mph /  16.1km/h 84% 0.00in /  0mm 359 W/m2
11:19 53.2 °F /  11.8 °C 48.5 °F /  9.2 °C 29.53in /  999.9hPa WSW 6.1mph /  9.8km/h 9mph /  14.5km/h 84% 0.00in /  0mm 376 W/m2
11:24 53.9 °F /  12.2 °C 49.2 °F /  9.6 °C 29.53in /  999.9hPa West 3.8mph /  6.1km/h 10mph /  16.1km/h 84% 0.00in /  0mm 401 W/m2
11:29 54.3 °F /  12.4 °C 49.1 °F /  9.5 °C 29.53in /  999.9hPa WSW 6.2mph /  10km/h 11mph /  17.7km/h 82.7% 0.00in /  0mm 427 W/m2
11:34 54.6 °F /  12.6 °C 49.2 °F /  9.6 °C 29.53in /  999.9hPa West 4.1mph /  6.6km/h 8mph /  12.9km/h 82% 0.00in /  0mm 446 W/m2
11:39 55 °F /  12.8 °C 49.5 °F /  9.7 °C 29.53in /  999.9hPa WNW 5.3mph /  8.5km/h 11mph /  17.7km/h 81.6% 0.00in /  0mm 432 W/m2
11:44 55.2 °F /  12.9 °C 48.9 °F /  9.4 °C 29.53in /  999.9hPa WSW 5.3mph /  8.5km/h 11mph /  17.7km/h 79.6% 0.00in /  0mm 448 W/m2
11:49 55.1 °F /  12.8 °C 48.7 °F /  9.3 °C 29.53in /  999.9hPa WSW 7.2mph /  11.6km/h 11mph /  17.7km/h 79% 0.00in /  0mm 448 W/m2
11:54 55.4 °F /  13 °C 48.7 °F /  9.3 °C 29.53in /  999.9hPa WSW 6.6mph /  10.6km/h 12mph /  19.3km/h 77.9% 0.00in /  0mm 543 W/m2
11:59 55.7 °F /  13.2 °C 48.9 °F /  9.4 °C 29.54in /  1000.2hPa West 6mph /  9.7km/h 12mph /  19.3km/h 78% 0.00in /  0mm 601 W/m2
12:04 56.2 °F /  13.4 °C 49.2 °F /  9.6 °C 29.54in /  1000.2hPa West 5.6mph /  9km/h 10mph /  16.1km/h 77.7% 0.00in /  0mm 608 W/m2
12:09 56.6 °F /  13.7 °C 48.9 °F /  9.4 °C 29.54in /  1000.2hPa WSW 6.9mph /  11.1km/h 11mph /  17.7km/h 75.5% 0.00in /  0mm 624 W/m2
12:14 56.2 °F /  13.4 °C 48.5 °F /  9.2 °C 29.54in /  1000.2hPa WSW 8.1mph /  13km/h 13mph /  20.9km/h 75% 0.00in /  0mm 533 W/m2
12:19 55.8 °F /  13.2 °C 48.2 °F /  9 °C 29.54in /  1000.2hPa West 6.6mph /  10.6km/h 13mph /  20.9km/h 75.6% 0.00in /  0mm 483 W/m2
12:24 55.9 °F /  13.3 °C 48.5 °F /  9.2 °C 29.53in /  999.9hPa WSW 6.2mph /  10km/h 13mph /  20.9km/h 75.8% 0.00in /  0mm 490 W/m2
12:29 55.9 °F /  13.3 °C 48.4 °F /  9.1 °C 29.53in /  999.9hPa West 7.5mph /  12.1km/h 14mph /  22.5km/h 75.6% 0.00in /  0mm 504 W/m2
12:34 55.5 °F /  13.1 °C 47.6 °F /  8.7 °C 29.54in /  1000.2hPa West 7.8mph /  12.6km/h 14mph /  22.5km/h 74.5% 0.00in /  0mm 504 W/m2
12:39 55.2 °F /  12.9 °C 47.5 °F /  8.6 °C 29.54in /  1000.2hPa WNW 7.3mph /  11.7km/h 12mph /  19.3km/h 75% 0.00in /  0mm 478 W/m2
12:44 55.4 °F /  13 °C 47.6 °F /  8.7 °C 29.54in /  1000.2hPa West 5.7mph /  9.2km/h 10mph /  16.1km/h 74.9% 0.00in /  0mm 487 W/m2
12:49 56.1 °F /  13.4 °C 47.5 °F /  8.6 °C 29.54in /  1000.2hPa West 7.7mph /  12.4km/h 13mph /  20.9km/h 72.6% 0.00in /  0mm 494 W/m2
12:54 56.6 °F /  13.7 °C 47.4 °F /  8.6 °C 29.54in /  1000.2hPa West 7.6mph /  12.2km/h 14mph /  22.5km/h 71.6% 0.00in /  0mm 489 W/m2
12:59 56.4 °F /  13.6 °C 46.9 °F /  8.3 °C 29.54in /  1000.2hPa West 7.6mph /  12.2km/h 14mph /  22.5km/h 70.6% 0.00in /  0mm 497 W/m2
13:04 56.4 °F /  13.6 °C 46.7 °F /  8.2 °C 29.54in /  1000.2hPa WNW 8.6mph /  13.8km/h 14mph /  22.5km/h 69.8% 0.00in /  0mm 513 W/m2
13:09 56.4 °F /  13.6 °C 46.7 °F /  8.2 °C 29.54in /  1000.2hPa WNW 7.3mph /  11.7km/h 13mph /  20.9km/h 69.8% 0.00in /  0mm 547 W/m2
13:14 56.7 °F /  13.7 °C 46.7 °F /  8.2 °C 29.54in /  1000.2hPa WNW 9.2mph /  14.8km/h 16mph /  25.7km/h 69.3% 0.00in /  0mm 575 W/m2
13:19 56.8 °F /  13.8 °C 46.8 °F /  8.2 °C 29.54in /  1000.2hPa West 6.3mph /  10.1km/h 14mph /  22.5km/h 69% 0.00in /  0mm 476 W/m2
13:24 57 °F /  13.9 °C 46.8 °F /  8.2 °C 29.54in /  1000.2hPa West 7.1mph /  11.4km/h 13mph /  20.9km/h 68.9% 0.00in /  0mm 561 W/m2
13:29 57.4 °F /  14.1 °C 47.2 °F /  8.4 °C 29.54in /  1000.2hPa West 6.5mph /  10.5km/h 13mph /  20.9km/h 68.7% 0.00in /  0mm 527 W/m2
13:34 56.8 °F /  13.8 °C 46.7 °F /  8.2 °C 29.54in /  1000.2hPa WNW 6.8mph /  10.9km/h 12mph /  19.3km/h 68.8% 0.00in /  0mm 109 W/m2
13:39 55.9 °F /  13.3 °C 46.2 °F /  7.9 °C 29.54in /  1000.2hPa WNW 6.6mph /  10.6km/h 12mph /  19.3km/h 69.9% 0.00in /  0mm 128 W/m2
13:44 55.9 °F /  13.3 °C 46.7 °F /  8.2 °C 29.54in /  1000.2hPa West 6.6mph /  10.6km/h 12mph /  19.3km/h 71% 0.00in /  0mm 483 W/m2
13:49 56.9 °F /  13.8 °C 47.3 °F /  8.5 °C 29.55in /  1000.6hPa West 7mph /  11.3km/h 12mph /  19.3km/h 70.3% 0.00in /  0mm 499 W/m2
13:54 57.2 °F /  14 °C 47.5 °F /  8.6 °C 29.55in /  1000.6hPa West 5.9mph /  9.5km/h 11mph /  17.7km/h 70% 0.00in /  0mm 499 W/m2
13:59 56.9 °F /  13.8 °C 47.1 °F /  8.4 °C 29.55in /  1000.6hPa WNW 9.1mph /  14.6km/h 15mph /  24.1km/h 69.6% 0.00in /  0mm 475 W/m2
14:04 57 °F /  13.9 °C 46.9 °F /  8.3 °C 29.55in /  1000.6hPa West 7.2mph /  11.6km/h 15mph /  24.1km/h 69% 0.00in /  0mm 459 W/m2
14:09 57 °F /  13.9 °C 46.9 °F /  8.3 °C 29.55in /  1000.6hPa WNW 8.1mph /  13km/h 13mph /  20.9km/h 68.9% 0.00in /  0mm 468 W/m2
14:14 57.1 °F /  13.9 °C 46.8 °F /  8.2 °C 29.55in /  1000.6hPa West 6.4mph /  10.3km/h 12mph /  19.3km/h 68.5% 0.00in /  0mm 452 W/m2
14:19 57.5 °F /  14.2 °C 47.3 °F /  8.5 °C 29.55in /  1000.6hPa West 5.2mph /  8.4km/h 10mph /  16.1km/h 68.7% 0.00in /  0mm 452 W/m2
14:24 57 °F /  13.9 °C 46.8 °F /  8.2 °C 29.56in /  1000.9hPa WNW 6.5mph /  10.5km/h 11mph /  17.7km/h 68.6% 0.00in /  0mm 169 W/m2
14:29 56.4 °F /  13.6 °C 46.5 °F /  8.1 °C 29.56in /  1000.9hPa WNW 6.3mph /  10.1km/h 10mph /  16.1km/h 69.4% 0.00in /  0mm 473 W/m2
14:34 56.7 °F /  13.7 °C 46.7 °F /  8.2 °C 29.56in /  1000.9hPa West 5.1mph /  8.2km/h 10mph /  16.1km/h 69.1% 0.00in /  0mm 468 W/m2
14:39 57.5 °F /  14.2 °C 47.1 °F /  8.4 °C 29.56in /  1000.9hPa West 6.7mph /  10.8km/h 12mph /  19.3km/h 68.2% 0.00in /  0mm 476 W/m2
14:44 57.6 °F /  14.2 °C 47.3 °F /  8.5 °C 29.56in /  1000.9hPa WSW 4.7mph /  7.6km/h 9mph /  14.5km/h 68.2% 0.00in /  0mm 478 W/m2
14:49 57.9 °F /  14.4 °C 47.4 °F /  8.6 °C 29.56in /  1000.9hPa West 7.5mph /  12.1km/h 12mph /  19.3km/h 67.9% 0.00in /  0mm 478 W/m2
14:54 57.7 °F /  14.3 °C 47.1 °F /  8.4 °C 29.56in /  1000.9hPa WSW 6mph /  9.7km/h 12mph /  19.3km/h 67.5% 0.00in /  0mm 464 W/m2
14:59 57.8 °F /  14.3 °C 46.9 °F /  8.3 °C 29.56in /  1000.9hPa WSW 7.9mph /  12.7km/h 17mph /  27.4km/h 67% 0.00in /  0mm 431 W/m2
15:04 58 °F /  14.4 °C 46.9 °F /  8.3 °C 29.56in /  1000.9hPa WSW 7.6mph /  12.2km/h 17mph /  27.4km/h 66.6% 0.00in /  0mm 417 W/m2
15:09 58.3 °F /  14.6 °C 47.3 °F /  8.5 °C 29.57in /  1001.2hPa WNW 5.5mph /  8.9km/h 12mph /  19.3km/h 67% 0.00in /  0mm 417 W/m2
15:14 58.6 °F /  14.8 °C 47.5 °F /  8.6 °C 29.57in /  1001.2hPa West 5mph /  8km/h 10mph /  16.1km/h 66.7% 0.00in /  0mm 392 W/m2
15:19 58.5 °F /  14.7 °C 47.3 °F /  8.5 °C 29.56in /  1000.9hPa West 7.5mph /  12.1km/h 14mph /  22.5km/h 66.4% 0.00in /  0mm 394 W/m2
15:24 58.3 °F /  14.6 °C 48 °F /  8.9 °C 29.56in /  1000.9hPa West 5.7mph /  9.2km/h 11mph /  17.7km/h 68.6% 0.00in /  0mm 394 W/m2
15:29 58.5 °F /  14.7 °C 48.9 °F /  9.4 °C 29.56in /  1000.9hPa West 5mph /  8km/h 12mph /  19.3km/h 70.3% 0.00in /  0mm 369 W/m2
15:34 58.4 °F /  14.7 °C 48.8 °F /  9.3 °C 29.57in /  1001.2hPa WNW 6mph /  9.7km/h 10mph /  16.1km/h 70.2% 0.00in /  0mm 338 W/m2
15:39 57.9 °F /  14.4 °C 48.5 °F /  9.2 °C 29.57in /  1001.2hPa WNW 8.8mph /  14.2km/h 14mph /  22.5km/h 70.8% 0.00in /  0mm 336 W/m2
15:44 57.7 °F /  14.3 °C 48.4 °F /  9.1 °C 29.57in /  1001.2hPa West 5.6mph /  9km/h 14mph /  22.5km/h 71% 0.00in /  0mm 316 W/m2
15:49 58.2 °F /  14.6 °C 48.8 °F /  9.3 °C 29.57in /  1001.2hPa West 5.6mph /  9km/h 11mph /  17.7km/h 71% 0.00in /  0mm 338 W/m2
15:54 58.3 °F /  14.6 °C 49 °F /  9.4 °C 29.57in /  1001.2hPa West 6.2mph /  10km/h 11mph /  17.7km/h 71.1% 0.00in /  0mm 338 W/m2
15:59 58.3 °F /  14.6 °C 48.9 °F /  9.4 °C 29.57in /  1001.2hPa West 6.9mph /  11.1km/h 10mph /  16.1km/h 71% 0.00in /  0mm 334 W/m2
16:04 58.3 °F /  14.6 °C 49 °F /  9.4 °C 29.57in /  1001.2hPa West 7.5mph /  12.1km/h 12mph /  19.3km/h 71.3% 0.00in /  0mm 318 W/m2
16:09 57.9 °F /  14.4 °C 48.9 °F /  9.4 °C 29.57in /  1001.2hPa West 6mph /  9.7km/h 12mph /  19.3km/h 71.8% 0.00in /  0mm 304 W/m2
16:14 58.2 °F /  14.6 °C 48.9 °F /  9.4 °C 29.57in /  1001.2hPa WSW 6.6mph /  10.6km/h 12mph /  19.3km/h 71.4% 0.00in /  0mm 302 W/m2
16:19 58.3 °F /  14.6 °C 49.1 °F /  9.5 °C 29.57in /  1001.2hPa WSW 5.4mph /  8.7km/h 10mph /  16.1km/h 71.5% 0.00in /  0mm 271 W/m2
16:24 58.1 °F /  14.5 °C 49 °F /  9.4 °C 29.58in /  1001.6hPa West 6.4mph /  10.3km/h 12mph /  19.3km/h 71.8% 0.00in /  0mm 265 W/m2
16:29 57.5 °F /  14.2 °C 48.6 °F /  9.2 °C 29.58in /  1001.6hPa WNW 7.4mph /  11.9km/h 13mph /  20.9km/h 72.3% 0.00in /  0mm 204 W/m2
16:34 57 °F /  13.9 °C 48.4 °F /  9.1 °C 29.58in /  1001.6hPa West 6.6mph /  10.6km/h 13mph /  20.9km/h 73% 0.00in /  0mm 204 W/m2
16:39 56.8 °F /  13.8 °C 48.5 °F /  9.2 °C 29.58in /  1001.6hPa WNW 7.3mph /  11.7km/h 13mph /  20.9km/h 73.8% 0.00in /  0mm 174 W/m2
16:44 56.6 °F /  13.7 °C 48.4 °F /  9.1 °C 29.58in /  1001.6hPa WNW 6.6mph /  10.6km/h 11mph /  17.7km/h 74% 0.00in /  0mm 88 W/m2
16:49 56.2 °F /  13.4 °C 48.1 °F /  8.9 °C 29.58in /  1001.6hPa WNW 5.2mph /  8.4km/h 10mph /  16.1km/h 74% 0.00in /  0mm 67 W/m2
16:54 56 °F /  13.3 °C 48 °F /  8.9 °C 29.58in /  1001.6hPa WNW 3.7mph /  6km/h 8mph /  12.9km/h 74.4% 0.00in /  0mm 105 W/m2
16:59 56 °F /  13.3 °C 48 °F /  8.9 °C 29.59in /  1001.9hPa NW 4.1mph /  6.6km/h 9mph /  14.5km/h 74.4% 0.00in /  0mm 102 W/m2
17:04 55.9 °F /  13.3 °C 48.1 °F /  8.9 °C 29.59in /  1001.9hPa WNW 3.7mph /  6km/h 7mph /  11.3km/h 74.7% 0.00in /  0mm 98 W/m2
17:09 56 °F /  13.3 °C 48.3 °F /  9.1 °C 29.59in /  1001.9hPa WNW 3.7mph /  6km/h 7mph /  11.3km/h 75% 0.00in /  0mm 102 W/m2
17:14 56.2 °F /  13.4 °C 48.5 °F /  9.2 °C 29.59in /  1001.9hPa WNW 2.3mph /  3.7km/h 5mph /  8km/h 75% 0.00in /  0mm 102 W/m2
17:19 56.2 °F /  13.4 °C 48.3 °F /  9.1 °C 29.59in /  1001.9hPa WNW 5.2mph /  8.4km/h 8mph /  12.9km/h 74.5% 0.00in /  0mm 83 W/m2
17:24 55.9 °F /  13.3 °C 48.1 °F /  8.9 °C 29.59in /  1001.9hPa WNW 3mph /  4.8km/h 8mph /  12.9km/h 74.8% 0.00in /  0mm 58 W/m2
17:29 55.9 °F /  13.3 °C 48.1 °F /  8.9 °C 29.60in /  1002.3hPa West 3.1mph /  5km/h 7mph /  11.3km/h 75% 0.00in /  0mm 53 W/m2
17:34 55.8 °F /  13.2 °C 48 °F /  8.9 °C 29.60in /  1002.3hPa WNW 2.4mph /  3.9km/h 7mph /  11.3km/h 75% 0.00in /  0mm 44 W/m2
17:39 55.6 °F /  13.1 °C 47.8 °F /  8.8 °C 29.60in /  1002.3hPa West 2.9mph /  4.7km/h 6mph /  9.7km/h 75% 0.00in /  0mm 33 W/m2
17:44 55.5 °F /  13.1 °C 47.7 °F /  8.7 °C 29.60in /  1002.3hPa West 1.5mph /  2.4km/h 5mph /  8km/h 75% 0.00in /  0mm 23 W/m2
17:49 55.1 °F /  12.8 °C 47.6 °F /  8.7 °C 29.60in /  1002.3hPa West 1.1mph /  1.8km/h 4mph /  6.4km/h 75.6% 0.00in /  0mm 18 W/m2
17:54 54.7 °F /  12.6 °C 47.3 °F /  8.5 °C 29.60in /  1002.3hPa West 2.4mph /  3.9km/h 5mph /  8km/h 76% 0.00in /  0mm 14 W/m2
17:59 54.4 °F /  12.4 °C 47 °F /  8.3 °C 29.60in /  1002.3hPa West 0.8mph /  1.3km/h 5mph /  8km/h 76% 0.00in /  0mm 12 W/m2
18:04 54.2 °F /  12.3 °C 46.8 °F /  8.2 °C 29.60in /  1002.3hPa West 0.5mph /  0.8km/h 2mph /  3.2km/h 76% 0.00in /  0mm 9 W/m2
18:09 54 °F /  12.2 °C 46.7 °F /  8.2 °C 29.61in /  1002.6hPa West 0.4mph /  0.6km/h 2mph /  3.2km/h 76.4% 0.00in /  0mm 5 W/m2
18:14 53.8 °F /  12.1 °C 46.8 °F /  8.2 °C 29.61in /  1002.6hPa West 0.1mph /  0.2km/h 1mph /  1.6km/h 77% 0.00in /  0mm 0 W/m2
18:19 53.5 °F /  11.9 °C 46.5 °F /  8.1 °C 29.61in /  1002.6hPa Calm   1mph /  1.6km/h 77% 0.00in /  0mm 0 W/m2
18:24 53.2 °F /  11.8 °C 46.2 °F /  7.9 °C 29.61in /  1002.6hPa Calm   1mph /  1.6km/h 77% 0.00in /  0mm 0 W/m2
18:29 52.9 °F /  11.6 °C 46.1 °F /  7.8 °C 29.61in /  1002.6hPa Calm     77.6% 0.00in /  0mm 0 W/m2
18:34 52.5 °F /  11.4 °C 46 °F /  7.8 °C 29.61in /  1002.6hPa West 0.3mph /  0.5km/h 1mph /  1.6km/h 78.4% 0.00in /  0mm 0 W/m2
18:39 52.1 °F /  11.2 °C 46 °F /  7.8 °C 29.61in /  1002.6hPa Calm     79.4% 0.00in /  0mm 0 W/m2
18:44 51.8 °F /  11 °C 46 °F /  7.8 °C 29.61in /  1002.6hPa Calm     80.4% 0.00in /  0mm 0 W/m2
18:49 51.6 °F /  10.9 °C 46 °F /  7.8 °C 29.62in /  1002.9hPa Calm     81.2% 0.00in /  0mm 0 W/m2
18:54 51.6 °F /  10.9 °C 46.2 °F /  7.9 °C 29.62in /  1002.9hPa Calm     82% 0.00in /  0mm 0 W/m2
18:59 51.4 °F /  10.8 °C 46.1 °F /  7.8 °C 29.62in /  1002.9hPa Calm     82% 0.00in /  0mm 0 W/m2
19:04 51.1 °F /  10.6 °C 45.9 °F /  7.7 °C 29.62in /  1002.9hPa Calm     82.2% 0.00in /  0mm 0 W/m2
19:09 50.6 °F /  10.3 °C 45.6 °F /  7.6 °C 29.62in /  1002.9hPa West 0.2mph /  0.3km/h 1mph /  1.6km/h 83% 0.00in /  0mm 0 W/m2
19:14 50.2 °F /  10.1 °C 45.3 °F /  7.4 °C 29.62in /  1002.9hPa Calm   1mph /  1.6km/h 83.5% 0.00in /  0mm 0 W/m2
19:19 49.7 °F /  9.8 °C 45.1 °F /  7.3 °C 29.62in /  1002.9hPa West 0.6mph /  1km/h 2mph /  3.2km/h 84.2% 0.00in /  0mm 0 W/m2
19:24 49.4 °F /  9.7 °C 45 °F /  7.2 °C 29.62in /  1002.9hPa West 1.4mph /  2.3km/h 3mph /  4.8km/h 85% 0.00in /  0mm 0 W/m2
19:29 49 °F /  9.4 °C 44.8 °F /  7.1 °C 29.62in /  1002.9hPa West 1.7mph /  2.7km/h 3mph /  4.8km/h 85.2% 0.00in /  0mm 0 W/m2
19:34 48.9 °F /  9.4 °C 45 °F /  7.2 °C 29.62in /  1002.9hPa West 2.2mph /  3.5km/h 4mph /  6.4km/h 86% 0.00in /  0mm 0 W/m2
19:39 48.9 °F /  9.4 °C 45 °F /  7.2 °C 29.62in /  1002.9hPa West 1.2mph /  1.9km/h 4mph /  6.4km/h 86% 0.00in /  0mm 0 W/m2
19:44 48.9 °F /  9.4 °C 45.1 °F /  7.3 °C 29.62in /  1002.9hPa West 1.6mph /  2.6km/h 4mph /  6.4km/h 87% 0.00in /  0mm 0 W/m2
19:49 48.9 °F /  9.4 °C 45.1 °F /  7.3 °C 29.62in /  1002.9hPa West 0.4mph /  0.6km/h 4mph /  6.4km/h 87% 0.00in /  0mm 0 W/m2
19:54 48.6 °F /  9.2 °C 44.9 °F /  7.2 °C 29.63in /  1003.3hPa West 0.1mph /  0.2km/h 2mph /  3.2km/h 87% 0.00in /  0mm 0 W/m2
19:59 48.2 °F /  9 °C 44.6 °F /  7 °C 29.63in /  1003.3hPa Calm     87% 0.00in /  0mm 0 W/m2
20:04 48 °F /  8.9 °C 44.4 °F /  6.9 °C 29.63in /  1003.3hPa Calm     87% 0.00in /  0mm 0 W/m2
20:09 48 °F /  8.9 °C 44.4 °F /  6.9 °C 29.63in /  1003.3hPa Calm     87% 0.00in /  0mm 0 W/m2
20:14 47.8 °F /  8.8 °C 44.2 °F /  6.8 °C 29.63in /  1003.3hPa Calm     87% 0.00in /  0mm 0 W/m2
20:19 47.6 °F /  8.7 °C 44 °F /  6.7 °C 29.63in /  1003.3hPa West 0.5mph /  0.8km/h 2mph /  3.2km/h 87% 0.00in /  0mm 0 W/m2
20:24 47.4 °F /  8.6 °C 43.9 °F /  6.6 °C 29.64in /  1003.6hPa West 0.7mph /  1.1km/h 2mph /  3.2km/h 87.3% 0.00in /  0mm 0 W/m2
20:29 47.1 °F /  8.4 °C 43.7 °F /  6.5 °C 29.64in /  1003.6hPa West 0.6mph /  1km/h 2mph /  3.2km/h 88% 0.00in /  0mm 0 W/m2
20:34 47.1 °F /  8.4 °C 43.7 °F /  6.5 °C 29.64in /  1003.6hPa West 0.3mph /  0.5km/h 2mph /  3.2km/h 88% 0.00in /  0mm 0 W/m2
20:39 47.1 °F /  8.4 °C 43.7 °F /  6.5 °C 29.64in /  1003.6hPa Calm   1mph /  1.6km/h 88% 0.00in /  0mm 0 W/m2
20:44 46.9 °F /  8.3 °C 43.9 °F /  6.6 °C 29.65in /  1003.9hPa West 0.2mph /  0.3km/h 1mph /  1.6km/h 89% 0.00in /  0mm 0 W/m2
20:49 46.8 °F /  8.2 °C 43.7 °F /  6.5 °C 29.65in /  1003.9hPa Calm   1mph /  1.6km/h 89% 0.00in /  0mm 0 W/m2
20:54 46.8 °F /  8.2 °C 43.7 °F /  6.5 °C 29.65in /  1003.9hPa Calm     89% 0.00in /  0mm 0 W/m2
20:59 46.6 °F /  8.1 °C 43.5 °F /  6.4 °C 29.65in /  1003.9hPa Calm     89% 0.00in /  0mm 0 W/m2
21:04 46.5 °F /  8.1 °C 43.4 °F /  6.3 °C 29.65in /  1003.9hPa Calm     89% 0.00in /  0mm 0 W/m2
21:09 46.2 °F /  7.9 °C 43.2 °F /  6.2 °C 29.65in /  1003.9hPa Calm     89% 0.00in /  0mm 0 W/m2
21:14 46.2 °F /  7.9 °C 43.2 °F /  6.2 °C 29.65in /  1003.9hPa Calm     89% 0.00in /  0mm 0 W/m2
21:19 46 °F /  7.8 °C 42.9 °F /  6.1 °C 29.66in /  1004.3hPa West 1mph /  1.6km/h 3mph /  4.8km/h 89% 0.00in /  0mm 0 W/m2
21:24 45.9 °F /  7.7 °C 43 °F /  6.1 °C 29.66in /  1004.3hPa West 1.7mph /  2.7km/h 3mph /  4.8km/h 89.4% 0.00in /  0mm 0 W/m2
21:29 45.9 °F /  7.7 °C 43.2 °F /  6.2 °C 29.66in /  1004.3hPa West 0.8mph /  1.3km/h 2mph /  3.2km/h 90% 0.00in /  0mm 0 W/m2
21:34 45.9 °F /  7.7 °C 43.2 °F /  6.2 °C 29.66in /  1004.3hPa West 0.5mph /  0.8km/h 2mph /  3.2km/h 90% 0.00in /  0mm 0 W/m2
21:39 45.7 °F /  7.6 °C 43 °F /  6.1 °C 29.66in /  1004.3hPa West 0.3mph /  0.5km/h 2mph /  3.2km/h 90% 0.00in /  0mm 0 W/m2
21:44 45.5 °F /  7.5 °C 42.8 °F /  6 °C 29.66in /  1004.3hPa Calm   2mph /  3.2km/h 90% 0.00in /  0mm 0 W/m2
21:49 45.5 °F /  7.5 °C 42.8 °F /  6 °C 29.66in /  1004.3hPa Calm     90% 0.00in /  0mm 0 W/m2
21:54 45.4 °F /  7.4 °C 42.7 °F /  5.9 °C 29.66in /  1004.3hPa Calm     90% 0.00in /  0mm 0 W/m2
21:59 45.3 °F /  7.4 °C 42.6 °F /  5.9 °C 29.67in /  1004.6hPa West 0.2mph /  0.3km/h 1mph /  1.6km/h 90% 0.00in /  0mm 0 W/m2
22:04 45 °F /  7.2 °C 42.3 °F /  5.7 °C 29.67in /  1004.6hPa Calm   1mph /  1.6km/h 90% 0.00in /  0mm 0 W/m2
22:09 45 °F /  7.2 °C 42.3 °F /  5.7 °C 29.67in /  1004.6hPa Calm     90% 0.00in /  0mm 0 W/m2
22:14 45 °F /  7.2 °C 42.3 °F /  5.7 °C 29.67in /  1004.6hPa Calm   1mph /  1.6km/h 90.2% 0.00in /  0mm 0 W/m2
22:19 44.9 °F /  7.2 °C 42.3 °F /  5.7 °C 29.67in /  1004.6hPa Calm     91% 0.00in /  0mm 0 W/m2
22:24 44.7 °F /  7.1 °C 42.2 °F /  5.7 °C 29.67in /  1004.6hPa Calm     91% 0.00in /  0mm 0 W/m2
22:29 44.4 °F /  6.9 °C 41.9 °F /  5.5 °C 29.67in /  1004.6hPa Calm     91% 0.00in /  0mm 0 W/m2
22:34 44.2 °F /  6.8 °C 41.7 °F /  5.4 °C 29.67in /  1004.6hPa Calm     91% 0.00in /  0mm 0 W/m2
22:39 44.1 °F /  6.7 °C 41.5 °F /  5.3 °C 29.68in /  1005hPa Calm     91% 0.00in /  0mm 0 W/m2
22:44 44.1 °F /  6.7 °C 41.6 °F /  5.3 °C 29.68in /  1005hPa West 0.2mph /  0.3km/h 1mph /  1.6km/h 91% 0.00in /  0mm 0 W/m2
22:49 44 °F /  6.7 °C 41.5 °F /  5.3 °C 29.68in /  1005hPa Calm   1mph /  1.6km/h 91% 0.00in /  0mm 0 W/m2
22:54 43.8 °F /  6.6 °C 41.3 °F /  5.2 °C 29.68in /  1005hPa Calm     91% 0.00in /  0mm 0 W/m2
22:59 43.7 °F /  6.5 °C 41.2 °F /  5.1 °C 29.69in /  1005.3hPa Calm     91% 0.00in /  0mm 0 W/m2
23:04 43.6 °F /  6.4 °C 41.1 °F /  5.1 °C 29.69in /  1005.3hPa Calm     91% 0.00in /  0mm 0 W/m2
23:09 43.5 °F /  6.4 °C 41 °F /  5 °C 29.69in /  1005.3hPa Calm     91% 0.00in /  0mm 0 W/m2
23:14 43.5 °F /  6.4 °C 41 °F /  5 °C 29.69in /  1005.3hPa West 0.4mph /  0.6km/h 1mph /  1.6km/h 91% 0.00in /  0mm 0 W/m2
23:19 43.6 °F /  6.4 °C 41.2 °F /  5.1 °C 29.69in /  1005.3hPa Calm   1mph /  1.6km/h 91.2% 0.00in /  0mm 0 W/m2
23:24 43.7 °F /  6.5 °C 41.5 °F /  5.3 °C 29.69in /  1005.3hPa Calm     92% 0.00in /  0mm 0 W/m2
23:29 43.8 °F /  6.6 °C 41.6 °F /  5.3 °C 29.69in /  1005.3hPa Calm     92% 0.00in /  0mm 0 W/m2
23:34 43.7 °F /  6.5 °C 41.5 °F /  5.3 °C 29.69in /  1005.3hPa Calm     92% 0.00in /  0mm 0 W/m2
23:39 43.7 °F /  6.5 °C 41.5 °F /  5.3 °C 29.70in /  1005.6hPa Calm     92% 0.00in /  0mm 0 W/m2
23:44 43.5 °F /  6.4 °C 41.4 °F /  5.2 °C 29.70in /  1005.6hPa Calm     92% 0.00in /  0mm 0 W/m2
23:49 43.4 °F /  6.3 °C 41.3 °F /  5.2 °C 29.70in /  1005.6hPa Calm     92% 0.00in /  0mm 0 W/m2
23:54 43.3 °F /  6.3 °C 41.2 °F /  5.1 °C 29.70in /  1005.6hPa Calm     92% 0.00in /  0mm 0 W/m2
23:59 43.2 °F /  6.2 °C 41 °F /  5 °C 29.70in /  1005.6hPa Calm     92% 0.00in /  0mm 0 W/m2
Bath Spa Weather
Compliments of Weather Underground - 2 mb